Queen Isabella — A8IE2 — position and weather

sailwx.info

Track history (hours):
 
Tides and Currents Weather Stations Pressure Air Temp Water Temp Dewpoint Dewpoint Depression Visibility Wind Speed Wind Dir Waves Ship Positions

Queen Isabella

Last reported at 2014-Oct-19 22:19 UTC. Time now 2014-Oct-24 12:56 UTC.
Position N 35°30' W 007°44'.

Length 131 m; draft 6.8 m.

Type: Ship. MMSI: 636090959.

Date/timePositionNaut miles runAvg speedWind from/ knotsBaromVisibWave heightAir tempDewpointWater temp
2014-Oct-19 22:19N 35°30' W 007°44'1013.6
2014-Oct-19 21:33N 35°40' W 007°39'1413.5
2014-Oct-19 20:33N 35°52' W 007°33'1413.8
2014-Oct-19 19:33N 36°05' W 007°26'94 1.9
2014-Oct-17 17:33N 35°58' W 005°30'1110.7
2014-Oct-17 16:33N 36°02' W 005°17'21411.9
2014-Oct-16 22:30N 37°11' W 001°05'1213.1
2014-Oct-16 21:33N 37°20' W 000°53'1313.2
2014-Oct-16 20:32N 37°29' W 000°41'1313.1
2014-Oct-16 19:33N 37°38' W 000°30'1412.8
2014-Oct-16 18:28N 37°50' W 000°20'1512.5
2014-Oct-16 17:15N 38°02' W 000°10'912.6
2014-Oct-16 16:31N 38°10' W 000°03'1212.7
2014-Oct-16 15:33N 38°21' E 000°05'1212.3
2014-Oct-16 14:33N 38°31' E 000°13'1412.7
2014-Oct-16 13:29N 38°42' E 000°22'4213.1
2014-Oct-16 10:17N 39°21' W 000°01'912.0
2014-Oct-16 09:33N 39°29' W 000°05'1211.5
2014-Oct-16 08:31N 39°39' W 000°13'0 0.0
2014-Oct-15 04:19N 39°39' W 000°13'7 6.9
2014-Oct-15 03:21N 39°33' W 000°09'  
2014-Oct-12 04:33N 36°02' W 000°08'3 0.3
2014-Oct-11 18:12N 36°03' W 000°12'1 1.2
2014-Oct-11 17:33N 36°02' W 000°12'1 0.9
2014-Oct-11 16:15N 36°01' W 000°12'1 0.8
2014-Oct-11 14:33N 36°01' W 000°10'7 0.3
2014-Oct-10 14:33N 36°08' W 000°10'16 1.7
2014-Oct-10 05:05N 36°19' E 000°04'11 2.2
2014-Oct-10 00:11N 36°12' W 000°06'1 2.2
2014-Oct-09 23:34N 36°11' W 000°07'  
Track history (hours):
 
Tides and Currents Weather Stations Pressure Air Temp Water Temp Dewpoint Dewpoint Depression Visibility Wind Speed Wind Dir Waves Ship Positions

Queen Isabella

Last reported at 2014-Oct-19 22:19 UTC. Time now 2014-Oct-24 12:56 UTC.
Position N 35°30' W 007°44'.

Length 131 m; draft 6.8 m.

Type: Ship. MMSI: 636090959.

Date/timePositionNaut miles runAvg speedWind from/ knotsBaromVisibWave heightAir tempDewpointWater temp
2014-Oct-19 22:19N 35°30' W 007°44'1013.6
2014-Oct-19 21:33N 35°40' W 007°39'1413.5
2014-Oct-19 20:33N 35°52' W 007°33'1413.8
2014-Oct-19 19:33N 36°05' W 007°26'94 1.9
2014-Oct-17 17:33N 35°58' W 005°30'1110.7
2014-Oct-17 16:33N 36°02' W 005°17'21411.9
2014-Oct-16 22:30N 37°11' W 001°05'1213.1
2014-Oct-16 21:33N 37°20' W 000°53'1313.2
2014-Oct-16 20:32N 37°29' W 000°41'1313.1
2014-Oct-16 19:33N 37°38' W 000°30'1412.8
2014-Oct-16 18:28N 37°50' W 000°20'1512.5
2014-Oct-16 17:15N 38°02' W 000°10'912.6
2014-Oct-16 16:31N 38°10' W 000°03'1212.7
2014-Oct-16 15:33N 38°21' E 000°05'1212.3
2014-Oct-16 14:33N 38°31' E 000°13'1412.7
2014-Oct-16 13:29N 38°42' E 000°22'4213.1
2014-Oct-16 10:17N 39°21' W 000°01'912.0
2014-Oct-16 09:33N 39°29' W 000°05'1211.5
2014-Oct-16 08:31N 39°39' W 000°13'0 0.0
2014-Oct-15 04:19N 39°39' W 000°13'7 6.9
2014-Oct-15 03:21N 39°33' W 000°09'  
2014-Oct-12 04:33N 36°02' W 000°08'3 0.3
2014-Oct-11 18:12N 36°03' W 000°12'1 1.2
2014-Oct-11 17:33N 36°02' W 000°12'1 0.9
2014-Oct-11 16:15N 36°01' W 000°12'1 0.8
2014-Oct-11 14:33N 36°01' W 000°10'7 0.3
2014-Oct-10 14:33N 36°08' W 000°10'16 1.7
2014-Oct-10 05:05N 36°19' E 000°04'11 2.2
2014-Oct-10 00:11N 36°12' W 000°06'1 2.2
2014-Oct-09 23:34N 36°11' W 000°07'  

Dump ship's entire track history